Monte Brasil — CSEM — position and weather

sailwx.info

Track history (hours):
 
Tides and Currents Weather Stations Pressure Air Temp Water Temp Dewpoint Dewpoint Depression Visibility Wind Speed Wind Dir Waves Ship Positions

Monte Brasil

Last reported at 2017-Oct-22 11:58 UTC. Time now 2017-Oct-22 12:13 UTC.
Position N 37°44' W 025°40'.

Length 127 m; draft 6 m.

Type: Cargo ship. MMSI: 255806010.

Date/timePositionNaut miles runAvg speedWind from/ knotsBaromVisibWave heightAir tempDewpointWater temp
2017-Oct-22 11:58N 37°44' W 025°40'0 0.0
2017-Oct-22 11:28N 37°44' W 025°40'0 0.0
2017-Oct-22 10:58N 37°44' W 025°40'0 0.0
2017-Oct-22 10:28N 37°44' W 025°40'0 0.0
2017-Oct-22 09:58N 37°44' W 025°40'0 0.0
2017-Oct-22 09:28N 37°44' W 025°40'0 0.0
2017-Oct-22 08:58N 37°44' W 025°40'0 0.7
2017-Oct-22 08:31N 37°44' W 025°39'2 3.0
2017-Oct-22 08:01N 37°43' W 025°39'3 6.3
2017-Oct-22 07:31N 37°42' W 025°35'611.5
2017-Oct-22 07:01N 37°42' W 025°42'713.9
2017-Oct-22 06:30N 37°44' W 025°51'714.6
2017-Oct-22 06:01N 37°47' W 025°59'714.0
2017-Oct-22 05:30N 37°50' W 026°07'713.7
2017-Oct-22 05:01N 37°53' W 026°15'713.7
2017-Oct-22 04:30N 37°56' W 026°23'714.2
2017-Oct-22 04:01N 37°58' W 026°31'714.3
2017-Oct-22 03:30N 38°01' W 026°40'714.0
2017-Oct-22 03:00N 38°04' W 026°48'713.9
2017-Oct-22 02:30N 38°06' W 026°56'713.8
2017-Oct-22 02:00N 38°09' W 027°04'713.9
2017-Oct-22 01:30N 38°12' W 027°12'714.1
2017-Oct-22 01:00N 38°15' W 027°20'714.0
2017-Oct-22 00:30N 38°18' W 027°29'714.0
2017-Oct-22 00:00N 38°20' W 027°37'714.4
2017-Oct-21 23:30N 38°23' W 027°46'714.5
2017-Oct-21 23:00N 38°26' W 027°54'714.5
2017-Oct-21 22:30N 38°29' W 028°03'815.2
2017-Oct-21 22:00N 38°32' W 028°11'815.3
2017-Oct-21 21:30N 38°35' W 028°21'714.7
2017-Oct-21 21:00N 38°35' W 028°30'610.4
2017-Oct-21 20:24N 38°32' W 028°37'0 0.0
2017-Oct-21 20:00N 38°32' W 028°37'0 0.0
2017-Oct-21 19:18N 38°32' W 028°37'0 0.0
2017-Oct-21 18:51N 38°32' W 028°37'0 0.0
2017-Oct-21 18:27N 38°32' W 028°37'0 0.0
2017-Oct-21 16:48N 38°32' W 028°37'0 0.0
2017-Oct-21 16:30N 38°32' W 028°37'0 0.0
2017-Oct-21 16:00N 38°32' W 028°37'0 0.0
2017-Oct-21 15:12N 38°32' W 028°37'0 0.0
2017-Oct-21 14:57N 38°32' W 028°37'0 0.0
2017-Oct-21 14:24N 38°32' W 028°37'0 0.0
2017-Oct-21 13:24N 38°32' W 028°37'0 0.0
2017-Oct-21 12:36N 38°32' W 028°37'0 0.0
2017-Oct-21 12:27N 38°32' W 028°37'0 0.0
2017-Oct-21 11:48N 38°32' W 028°37'0 0.0
2017-Oct-21 11:30N 38°32' W 028°37'0 0.0
2017-Oct-21 08:54N 38°32' W 028°37'0 0.0
2017-Oct-21 08:03N 38°32' W 028°37'0 0.0
2017-Oct-21 04:36N 38°32' W 028°37'0 0.0
2017-Oct-21 02:33N 38°32' W 028°37'0 0.0
2017-Oct-21 02:26N 38°32' W 028°37'0 0.0
2017-Oct-21 01:42N 38°32' W 028°37'0 0.0
2017-Oct-21 01:30N 38°32' W 028°37'0 0.0
2017-Oct-21 00:30N 38°32' W 028°37'0 0.0
2017-Oct-20 23:43N 38°32' W 028°37'0 0.6
2017-Oct-20 23:31N 38°32' W 028°37'3 6.0
2017-Oct-20 22:58N 38°33' W 028°34'714.4
2017-Oct-20 22:30N 38°36' W 028°25'713.7
2017-Oct-20 22:01N 38°35' W 028°17'714.1
2017-Oct-20 21:30N 38°33' W 028°08'814.9
2017-Oct-20 20:59N 38°32' W 027°58'715.0
2017-Oct-20 20:30N 38°30' W 027°49'815.2
2017-Oct-20 20:00N 38°31' W 027°40'713.8
2017-Oct-20 19:30N 38°32' W 027°31'713.8
2017-Oct-20 19:00N 38°33' W 027°22'713.6
2017-Oct-20 18:29N 38°34' W 027°13'715.0
2017-Oct-20 18:00N 38°35' W 027°04'815.1
2017-Oct-20 17:30N 38°43' W 027°01'1 2.3
2017-Oct-20 16:53N 38°43' W 027°03'0 0.0
2017-Oct-20 16:30N 38°43' W 027°03'0 0.0
2017-Oct-20 15:56N 38°43' W 027°03'0 0.0
2017-Oct-20 15:20N 38°43' W 027°03'0 0.0
2017-Oct-20 14:47N 38°43' W 027°03'0 0.0
2017-Oct-20 14:29N 38°43' W 027°03'0 0.0
2017-Oct-20 09:02N 38°43' W 027°03'0 0.0
2017-Oct-20 08:44N 38°43' W 027°03'0 0.0
2017-Oct-19 22:44N 38°43' W 027°03'0 0.0
2017-Oct-19 22:20N 38°43' W 027°03'0 0.0
2017-Oct-19 21:35N 38°43' W 027°03'0 0.0
2017-Oct-19 21:20N 38°43' W 027°03'0 0.0
2017-Oct-19 20:56N 38°43' W 027°03'0 0.0
2017-Oct-19 20:08N 38°43' W 027°03'0 0.1
2017-Oct-19 20:00N 38°43' W 027°03'0 0.8
2017-Oct-19 19:30N 38°43' W 027°03'3 5.0
2017-Oct-19 19:00N 38°42' W 027°00'713.3
2017-Oct-19 18:30N 38°37' W 026°55'713.7
2017-Oct-19 18:00N 38°32' W 026°48'713.4
2017-Oct-19 17:30N 38°28' W 026°42'713.6
2017-Oct-19 17:00N 38°23' W 026°36'713.3
2017-Oct-19 16:30N 38°18' W 026°30'713.6
2017-Oct-19 16:00N 38°14' W 026°24'713.7
2017-Oct-19 15:30N 38°09' W 026°18'713.6
2017-Oct-19 15:00N 38°04' W 026°11'713.3
2017-Oct-19 14:30N 37°60' W 026°05'713.3
2017-Oct-19 14:00N 37°55' W 025°59'713.4
2017-Oct-19 13:31N 37°50' W 025°54'713.6
2017-Oct-19 13:00N 37°45' W 025°48'611.9
2017-Oct-19 12:30N 37°43' W 025°41'1 2.4
2017-Oct-19 12:00N 37°44' W 025°40'0 0.0
2017-Oct-19 11:30N 37°44' W 025°40'0 0.0
2017-Oct-19 11:00N 37°44' W 025°40'0 0.0
2017-Oct-19 10:30N 37°44' W 025°40'0 0.0
2017-Oct-19 10:01N 37°44' W 025°40'0 0.0
2017-Oct-19 09:30N 37°44' W 025°40'0 0.0
2017-Oct-19 09:00N 37°44' W 025°40'0 0.0
2017-Oct-19 08:30N 37°44' W 025°40'0 0.0
2017-Oct-19 08:00N 37°44' W 025°40'0 0.0
2017-Oct-19 07:30N 37°44' W 025°40'0 0.0
2017-Oct-19 07:00N 37°44' W 025°40'0 0.0
2017-Oct-19 06:30N 37°44' W 025°40'0 0.0
2017-Oct-19 06:00N 37°44' W 025°40'0 0.0
2017-Oct-19 05:30N 37°44' W 025°40'0 0.0
2017-Oct-19 05:00N 37°44' W 025°40'0 0.0
2017-Oct-19 04:30N 37°44' W 025°40'0 0.0
2017-Oct-19 04:00N 37°44' W 025°40'0 0.0
2017-Oct-19 03:30N 37°44' W 025°40'0 0.0
2017-Oct-19 03:00N 37°44' W 025°40'0 0.0
2017-Oct-19 02:30N 37°44' W 025°40'0 0.0
2017-Oct-19 02:00N 37°44' W 025°40'0 0.0
2017-Oct-19 01:30N 37°44' W 025°40'0 0.0
2017-Oct-19 01:00N 37°44' W 025°40'0 0.0
2017-Oct-19 00:30N 37°44' W 025°40'0 0.0
2017-Oct-19 00:00N 37°44' W 025°40'0 0.0
2017-Oct-18 23:30N 37°44' W 025°40'0 0.0
2017-Oct-18 23:00N 37°44' W 025°40'0 0.0
2017-Oct-18 22:30N 37°44' W 025°40'0 0.0
2017-Oct-18 22:00N 37°44' W 025°40'0 0.0
2017-Oct-18 21:30N 37°44' W 025°40'0 0.0
2017-Oct-18 21:00N 37°44' W 025°40'0 0.0
2017-Oct-18 20:30N 37°44' W 025°40'0 0.0
2017-Oct-18 20:00N 37°44' W 025°40'0 0.0
2017-Oct-18 19:30N 37°44' W 025°40'0 0.0
2017-Oct-18 19:00N 37°44' W 025°40'0 0.0
2017-Oct-18 18:30N 37°44' W 025°40'0 0.0
2017-Oct-18 18:00N 37°44' W 025°40'0 0.0
2017-Oct-18 17:30N 37°44' W 025°40'0 0.0
2017-Oct-18 17:00N 37°44' W 025°40'0 0.0
2017-Oct-18 16:30N 37°44' W 025°40'0 0.0
2017-Oct-18 16:00N 37°44' W 025°40'0 0.0
2017-Oct-18 15:30N 37°44' W 025°40'0 0.0
2017-Oct-18 15:00N 37°44' W 025°40'0 0.0
2017-Oct-18 14:00N 37°44' W 025°40'0 0.4
2017-Oct-18 13:30N 37°44' W 025°40'3 5.0
2017-Oct-18 13:00N 37°43' W 025°37'510.7
2017-Oct-18 12:30N 37°40' W 025°31'511.0
2017-Oct-18 12:00N 37°41' W 025°24'611.0
2017-Oct-18 11:30N 37°41' W 025°17'510.7
2017-Oct-18 11:00N 37°42' W 025°10'611.2
2017-Oct-18 10:30N 37°42' W 025°03'510.9
2017-Oct-18 10:00N 37°43' W 024°57'510.2
2017-Oct-18 09:30N 37°44' W 024°50'5 9.8
2017-Oct-18 09:01N 37°44' W 024°44'5 9.8
2017-Oct-18 08:30N 37°44' W 024°38'5 9.2
2017-Oct-18 08:00N 37°44' W 024°32'4 8.0
2017-Oct-18 07:30N 37°45' W 024°27'4 7.2
2017-Oct-18 07:00N 37°45' W 024°22'3 5.3
2017-Oct-18 06:30N 37°45' W 024°19'612.1
2017-Oct-18 06:00N 37°46' W 024°11'611.8
2017-Oct-18 05:30N 37°46' W 024°04'611.8
2017-Oct-18 05:00N 37°46' W 023°56'611.9
2017-Oct-18 04:30N 37°47' W 023°49'611.6
2017-Oct-18 04:00N 37°47' W 023°42'  
2017-Oct-15 19:30N 40°24' W 010°09'612.2
2017-Oct-15 18:59N 40°27' W 010°02'612.8
2017-Oct-15 18:30N 40°31' W 009°55'6213.7
2017-Oct-15 14:00N 41°07' W 008°49'612.6
2017-Oct-15 13:31N 41°10' W 008°42'1 2.2
2017-Oct-15 13:00N 41°11' W 008°42'0 0.0
2017-Oct-15 12:30N 41°11' W 008°42'0 0.0
2017-Oct-15 12:00N 41°11' W 008°42'0 0.0
2017-Oct-15 11:30N 41°11' W 008°42'0 0.0
2017-Oct-15 11:00N 41°11' W 008°42'0 0.0
2017-Oct-15 10:30N 41°11' W 008°42'0 0.0
2017-Oct-15 09:57N 41°11' W 008°42'0 0.0
2017-Oct-15 09:30N 41°11' W 008°42'0 0.0
2017-Oct-15 09:00N 41°11' W 008°42'0 0.0
2017-Oct-15 08:30N 41°11' W 008°42'0 0.0
2017-Oct-15 07:27N 41°11' W 008°42'0 0.0
2017-Oct-15 06:45N 41°11' W 008°42'0 0.0
2017-Oct-15 06:30N 41°11' W 008°42'0 0.0
2017-Oct-15 06:00N 41°11' W 008°42'0 0.0
2017-Oct-15 05:30N 41°11' W 008°42'0 0.0
2017-Oct-15 04:57N 41°11' W 008°42'0 0.0
2017-Oct-15 04:24N 41°11' W 008°42'0 0.0
2017-Oct-15 03:57N 41°11' W 008°42'0 0.0
2017-Oct-15 03:30N 41°11' W 008°42'0 0.0
2017-Oct-15 03:00N 41°11' W 008°42'0 0.0
2017-Oct-15 02:30N 41°11' W 008°42'0 0.0
2017-Oct-15 02:00N 41°11' W 008°42'0 0.0
2017-Oct-15 01:27N 41°11' W 008°42'0 0.0
2017-Oct-15 01:00N 41°11' W 008°42'0 0.0
2017-Oct-15 00:27N 41°11' W 008°42'0 0.0
2017-Oct-15 00:00N 41°11' W 008°42'0 0.0
2017-Oct-14 23:30N 41°11' W 008°42'0 0.0
2017-Oct-14 23:00N 41°11' W 008°42'0 0.0
2017-Oct-14 22:30N 41°11' W 008°42'0 0.0
2017-Oct-14 22:00N 41°11' W 008°42'0 0.0
2017-Oct-14 21:27N 41°11' W 008°42'0 0.0
2017-Oct-14 20:57N 41°11' W 008°42'0 0.0
2017-Oct-14 20:30N 41°11' W 008°42'0 0.0
2017-Oct-14 20:00N 41°11' W 008°42'0 0.0
2017-Oct-14 19:27N 41°11' W 008°42'0 0.0
2017-Oct-14 18:59N 41°11' W 008°42'0 0.0
2017-Oct-14 18:20N 41°11' W 008°42'0 0.0
2017-Oct-14 17:50N 41°11' W 008°42'0 0.0
2017-Oct-14 17:26N 41°11' W 008°42'0 0.0
2017-Oct-14 16:59N 41°11' W 008°42'0 0.0
2017-Oct-14 16:29N 41°11' W 008°42'0 0.0
2017-Oct-14 15:59N 41°11' W 008°42'0 0.0
2017-Oct-14 15:26N 41°11' W 008°42'0 0.0
2017-Oct-14 14:44N 41°11' W 008°42'0 0.0
2017-Oct-14 14:23N 41°11' W 008°42'0 0.0
2017-Oct-14 13:59N 41°11' W 008°42'0 0.0
2017-Oct-14 13:26N 41°11' W 008°42'0 0.0
2017-Oct-14 12:47N 41°11' W 008°42'0 0.0
2017-Oct-14 12:29N 41°11' W 008°42'0 0.0
2017-Oct-14 11:53N 41°11' W 008°42'0 0.0
2017-Oct-14 11:29N 41°11' W 008°42'0 0.0
2017-Oct-14 10:59N 41°11' W 008°42'0 0.0
2017-Oct-14 10:29N 41°11' W 008°42'0 0.0
2017-Oct-14 09:59N 41°11' W 008°42'0 0.6
2017-Oct-14 09:30N 41°11' W 008°42'0 0.1
2017-Oct-14 09:00N 41°11' W 008°42'0 0.0
2017-Oct-14 08:29N 41°11' W 008°42'0 0.0
2017-Oct-14 07:56N 41°11' W 008°42'0 0.0
2017-Oct-14 07:26N 41°11' W 008°42'0 0.0
2017-Oct-14 06:56N 41°11' W 008°42'0 0.0
2017-Oct-14 06:26N 41°11' W 008°42'0 0.0
2017-Oct-14 05:59N 41°11' W 008°42'0 0.0
2017-Oct-14 05:29N 41°11' W 008°42'0 0.0
2017-Oct-14 04:59N 41°11' W 008°42'0 0.0
2017-Oct-14 04:26N 41°11' W 008°42'0 0.0
2017-Oct-14 03:59N 41°11' W 008°42'0 0.0
2017-Oct-14 03:29N 41°11' W 008°42'0 0.0
2017-Oct-14 02:59N 41°11' W 008°42'0 0.0
2017-Oct-14 02:29N 41°11' W 008°42'0 0.0
2017-Oct-14 01:56N 41°11' W 008°42'0 0.0
2017-Oct-14 01:29N 41°11' W 008°42'0 0.0
2017-Oct-14 00:59N 41°11' W 008°42'0 0.0
2017-Oct-14 00:29N 41°11' W 008°42'0 0.0
2017-Oct-13 23:59N 41°11' W 008°42'0 0.0
2017-Oct-13 23:29N 41°11' W 008°42'0 0.0
2017-Oct-13 22:59N 41°11' W 008°42'0 0.0
2017-Oct-13 22:29N 41°11' W 008°42'0 0.0
2017-Oct-13 21:59N 41°11' W 008°42'0 0.0
2017-Oct-13 21:26N 41°11' W 008°42'0 0.0
2017-Oct-13 20:59N 41°11' W 008°42'0 0.0
2017-Oct-13 20:29N 41°11' W 008°42'0 0.0
2017-Oct-13 19:59N 41°11' W 008°42'0 0.0
2017-Oct-13 19:29N 41°11' W 008°42'0 0.0
2017-Oct-13 18:59N 41°11' W 008°42'0 0.0
2017-Oct-13 18:29N 41°11' W 008°42'0 0.0
2017-Oct-13 17:59N 41°11' W 008°42'0 0.0
2017-Oct-13 17:29N 41°11' W 008°42'0 0.0
2017-Oct-13 16:59N 41°11' W 008°42'0 0.0
2017-Oct-13 16:29N 41°11' W 008°42'0 0.0
2017-Oct-13 15:59N 41°11' W 008°42'0 0.0
2017-Oct-13 15:29N 41°11' W 008°42'0 0.0
2017-Oct-13 14:58N 41°11' W 008°42'0 0.0
2017-Oct-13 14:28N 41°11' W 008°42'0 0.0
2017-Oct-13 13:58N 41°11' W 008°42'0 0.0
2017-Oct-13 13:28N 41°11' W 008°42'0 0.0
2017-Oct-13 12:58N 41°11' W 008°42'0 0.0
2017-Oct-13 12:28N 41°11' W 008°42'0 0.0
2017-Oct-13 11:58N 41°11' W 008°42'0 0.0
2017-Oct-13 11:28N 41°11' W 008°42'0 0.0
2017-Oct-13 10:58N 41°11' W 008°42'0 0.0
2017-Oct-13 10:28N 41°11' W 008°42'0 0.0
2017-Oct-13 09:58N 41°11' W 008°42'0 0.0
2017-Oct-13 09:28N 41°11' W 008°42'0 0.0
2017-Oct-13 08:58N 41°11' W 008°42'0 0.0
2017-Oct-13 08:28N 41°11' W 008°42'0 0.0
2017-Oct-13 07:58N 41°11' W 008°42'0 0.0
2017-Oct-13 07:28N 41°11' W 008°42'0 0.0
2017-Oct-13 06:55N 41°11' W 008°42'0 0.0
2017-Oct-13 06:25N 41°11' W 008°42'0 0.0
2017-Oct-13 05:58N 41°11' W 008°42'0 0.0
2017-Oct-13 05:25N 41°11' W 008°42'0 0.0
2017-Oct-13 04:55N 41°11' W 008°42'0 0.0
2017-Oct-13 04:28N 41°11' W 008°42'0 0.0
2017-Oct-13 03:58N 41°11' W 008°42'0 0.0
2017-Oct-13 03:28N 41°11' W 008°42'0 0.0
2017-Oct-13 02:58N 41°11' W 008°42'0 0.0
2017-Oct-13 02:28N 41°11' W 008°42'0 0.0
2017-Oct-13 01:58N 41°11' W 008°42'0 0.0
2017-Oct-13 01:28N 41°11' W 008°42'0 0.0
2017-Oct-13 00:52N 41°11' W 008°42'0 0.0
2017-Oct-13 00:28N 41°11' W 008°42'0 0.0
2017-Oct-12 23:58N 41°11' W 008°42'0 0.0
2017-Oct-12 23:22N 41°11' W 008°42'0 0.0
2017-Oct-12 22:58N 41°11' W 008°42'0 0.0
2017-Oct-12 22:28N 41°11' W 008°42'0 0.0
2017-Oct-12 21:58N 41°11' W 008°42'0 0.0
2017-Oct-12 21:28N 41°11' W 008°42'0 0.0
2017-Oct-12 20:58N 41°11' W 008°42'0 0.0
2017-Oct-12 20:28N 41°11' W 008°42'0 0.0
2017-Oct-12 19:58N 41°11' W 008°42'0 0.0
2017-Oct-12 19:28N 41°11' W 008°42'0 0.0
2017-Oct-12 18:58N 41°11' W 008°42'0 0.0
2017-Oct-12 18:28N 41°11' W 008°42'0 0.0
2017-Oct-12 17:58N 41°11' W 008°42'0 0.0
2017-Oct-12 17:28N 41°11' W 008°42'0 0.0
2017-Oct-12 16:58N 41°11' W 008°42'0 0.0
2017-Oct-12 16:28N 41°11' W 008°42'0 0.0
2017-Oct-12 15:58N 41°11' W 008°42'0 0.0
2017-Oct-12 15:28N 41°11' W 008°42'0 0.0
2017-Oct-12 14:55N 41°11' W 008°42'0 0.0
2017-Oct-12 14:28N 41°11' W 008°42'0 0.0
2017-Oct-12 13:58N 41°11' W 008°42'0 0.0
2017-Oct-12 13:28N 41°11' W 008°42'0 0.0
2017-Oct-12 12:58N 41°11' W 008°42'0 0.0
2017-Oct-12 12:28N 41°11' W 008°42'  
Track history (hours):
 
Tides and Currents Weather Stations Pressure Air Temp Water Temp Dewpoint Dewpoint Depression Visibility Wind Speed Wind Dir Waves Ship Positions

Monte Brasil

Last reported at 2017-Oct-22 11:58 UTC. Time now 2017-Oct-22 12:13 UTC.
Position N 37°44' W 025°40'.

Length 127 m; draft 6 m.

Type: Cargo ship. MMSI: 255806010.

Date/timePositionNaut miles runAvg speedWind from/ knotsBaromVisibWave heightAir tempDewpointWater temp
2017-Oct-22 11:58N 37°44' W 025°40'0 0.0
2017-Oct-22 11:28N 37°44' W 025°40'0 0.0
2017-Oct-22 10:58N 37°44' W 025°40'0 0.0
2017-Oct-22 10:28N 37°44' W 025°40'0 0.0
2017-Oct-22 09:58N 37°44' W 025°40'0 0.0
2017-Oct-22 09:28N 37°44' W 025°40'0 0.0
2017-Oct-22 08:58N 37°44' W 025°40'0 0.7
2017-Oct-22 08:31N 37°44' W 025°39'2 3.0
2017-Oct-22 08:01N 37°43' W 025°39'3 6.3
2017-Oct-22 07:31N 37°42' W 025°35'611.5
2017-Oct-22 07:01N 37°42' W 025°42'713.9
2017-Oct-22 06:30N 37°44' W 025°51'714.6
2017-Oct-22 06:01N 37°47' W 025°59'714.0
2017-Oct-22 05:30N 37°50' W 026°07'713.7
2017-Oct-22 05:01N 37°53' W 026°15'713.7
2017-Oct-22 04:30N 37°56' W 026°23'714.2
2017-Oct-22 04:01N 37°58' W 026°31'714.3
2017-Oct-22 03:30N 38°01' W 026°40'714.0
2017-Oct-22 03:00N 38°04' W 026°48'713.9
2017-Oct-22 02:30N 38°06' W 026°56'713.8
2017-Oct-22 02:00N 38°09' W 027°04'713.9
2017-Oct-22 01:30N 38°12' W 027°12'714.1
2017-Oct-22 01:00N 38°15' W 027°20'714.0
2017-Oct-22 00:30N 38°18' W 027°29'714.0
2017-Oct-22 00:00N 38°20' W 027°37'714.4
2017-Oct-21 23:30N 38°23' W 027°46'714.5
2017-Oct-21 23:00N 38°26' W 027°54'714.5
2017-Oct-21 22:30N 38°29' W 028°03'815.2
2017-Oct-21 22:00N 38°32' W 028°11'815.3
2017-Oct-21 21:30N 38°35' W 028°21'714.7
2017-Oct-21 21:00N 38°35' W 028°30'610.4
2017-Oct-21 20:24N 38°32' W 028°37'0 0.0
2017-Oct-21 20:00N 38°32' W 028°37'0 0.0
2017-Oct-21 19:18N 38°32' W 028°37'0 0.0
2017-Oct-21 18:51N 38°32' W 028°37'0 0.0
2017-Oct-21 18:27N 38°32' W 028°37'0 0.0
2017-Oct-21 16:48N 38°32' W 028°37'0 0.0
2017-Oct-21 16:30N 38°32' W 028°37'0 0.0
2017-Oct-21 16:00N 38°32' W 028°37'0 0.0
2017-Oct-21 15:12N 38°32' W 028°37'0 0.0
2017-Oct-21 14:57N 38°32' W 028°37'0 0.0
2017-Oct-21 14:24N 38°32' W 028°37'0 0.0
2017-Oct-21 13:24N 38°32' W 028°37'0 0.0
2017-Oct-21 12:36N 38°32' W 028°37'0 0.0
2017-Oct-21 12:27N 38°32' W 028°37'0 0.0
2017-Oct-21 11:48N 38°32' W 028°37'0 0.0
2017-Oct-21 11:30N 38°32' W 028°37'0 0.0
2017-Oct-21 08:54N 38°32' W 028°37'0 0.0
2017-Oct-21 08:03N 38°32' W 028°37'0 0.0
2017-Oct-21 04:36N 38°32' W 028°37'0 0.0
2017-Oct-21 02:33N 38°32' W 028°37'0 0.0
2017-Oct-21 02:26N 38°32' W 028°37'0 0.0
2017-Oct-21 01:42N 38°32' W 028°37'0 0.0
2017-Oct-21 01:30N 38°32' W 028°37'0 0.0
2017-Oct-21 00:30N 38°32' W 028°37'0 0.0
2017-Oct-20 23:43N 38°32' W 028°37'0 0.6
2017-Oct-20 23:31N 38°32' W 028°37'3 6.0
2017-Oct-20 22:58N 38°33' W 028°34'714.4
2017-Oct-20 22:30N 38°36' W 028°25'713.7
2017-Oct-20 22:01N 38°35' W 028°17'714.1
2017-Oct-20 21:30N 38°33' W 028°08'814.9
2017-Oct-20 20:59N 38°32' W 027°58'715.0
2017-Oct-20 20:30N 38°30' W 027°49'815.2
2017-Oct-20 20:00N 38°31' W 027°40'713.8
2017-Oct-20 19:30N 38°32' W 027°31'713.8
2017-Oct-20 19:00N 38°33' W 027°22'713.6
2017-Oct-20 18:29N 38°34' W 027°13'715.0
2017-Oct-20 18:00N 38°35' W 027°04'815.1
2017-Oct-20 17:30N 38°43' W 027°01'1 2.3
2017-Oct-20 16:53N 38°43' W 027°03'0 0.0
2017-Oct-20 16:30N 38°43' W 027°03'0 0.0
2017-Oct-20 15:56N 38°43' W 027°03'0 0.0
2017-Oct-20 15:20N 38°43' W 027°03'0 0.0
2017-Oct-20 14:47N 38°43' W 027°03'0 0.0
2017-Oct-20 14:29N 38°43' W 027°03'0 0.0
2017-Oct-20 09:02N 38°43' W 027°03'0 0.0
2017-Oct-20 08:44N 38°43' W 027°03'0 0.0
2017-Oct-19 22:44N 38°43' W 027°03'0 0.0
2017-Oct-19 22:20N 38°43' W 027°03'0 0.0
2017-Oct-19 21:35N 38°43' W 027°03'0 0.0
2017-Oct-19 21:20N 38°43' W 027°03'0 0.0
2017-Oct-19 20:56N 38°43' W 027°03'0 0.0
2017-Oct-19 20:08N 38°43' W 027°03'0 0.1
2017-Oct-19 20:00N 38°43' W 027°03'0 0.8
2017-Oct-19 19:30N 38°43' W 027°03'3 5.0
2017-Oct-19 19:00N 38°42' W 027°00'713.3
2017-Oct-19 18:30N 38°37' W 026°55'713.7
2017-Oct-19 18:00N 38°32' W 026°48'713.4
2017-Oct-19 17:30N 38°28' W 026°42'713.6
2017-Oct-19 17:00N 38°23' W 026°36'713.3
2017-Oct-19 16:30N 38°18' W 026°30'713.6
2017-Oct-19 16:00N 38°14' W 026°24'713.7
2017-Oct-19 15:30N 38°09' W 026°18'713.6
2017-Oct-19 15:00N 38°04' W 026°11'713.3
2017-Oct-19 14:30N 37°60' W 026°05'713.3
2017-Oct-19 14:00N 37°55' W 025°59'713.4
2017-Oct-19 13:31N 37°50' W 025°54'713.6
2017-Oct-19 13:00N 37°45' W 025°48'611.9
2017-Oct-19 12:30N 37°43' W 025°41'1 2.4
2017-Oct-19 12:00N 37°44' W 025°40'0 0.0
2017-Oct-19 11:30N 37°44' W 025°40'0 0.0
2017-Oct-19 11:00N 37°44' W 025°40'0 0.0
2017-Oct-19 10:30N 37°44' W 025°40'0 0.0
2017-Oct-19 10:01N 37°44' W 025°40'0 0.0
2017-Oct-19 09:30N 37°44' W 025°40'0 0.0
2017-Oct-19 09:00N 37°44' W 025°40'0 0.0
2017-Oct-19 08:30N 37°44' W 025°40'0 0.0
2017-Oct-19 08:00N 37°44' W 025°40'0 0.0
2017-Oct-19 07:30N 37°44' W 025°40'0 0.0
2017-Oct-19 07:00N 37°44' W 025°40'0 0.0
2017-Oct-19 06:30N 37°44' W 025°40'0 0.0
2017-Oct-19 06:00N 37°44' W 025°40'0 0.0
2017-Oct-19 05:30N 37°44' W 025°40'0 0.0
2017-Oct-19 05:00N 37°44' W 025°40'0 0.0
2017-Oct-19 04:30N 37°44' W 025°40'0 0.0
2017-Oct-19 04:00N 37°44' W 025°40'0 0.0
2017-Oct-19 03:30N 37°44' W 025°40'0 0.0
2017-Oct-19 03:00N 37°44' W 025°40'0 0.0
2017-Oct-19 02:30N 37°44' W 025°40'0 0.0
2017-Oct-19 02:00N 37°44' W 025°40'0 0.0
2017-Oct-19 01:30N 37°44' W 025°40'0 0.0
2017-Oct-19 01:00N 37°44' W 025°40'0 0.0
2017-Oct-19 00:30N 37°44' W 025°40'0 0.0
2017-Oct-19 00:00N 37°44' W 025°40'0 0.0
2017-Oct-18 23:30N 37°44' W 025°40'0 0.0
2017-Oct-18 23:00N 37°44' W 025°40'0 0.0
2017-Oct-18 22:30N 37°44' W 025°40'0 0.0
2017-Oct-18 22:00N 37°44' W 025°40'0 0.0
2017-Oct-18 21:30N 37°44' W 025°40'0 0.0
2017-Oct-18 21:00N 37°44' W 025°40'0 0.0
2017-Oct-18 20:30N 37°44' W 025°40'0 0.0
2017-Oct-18 20:00N 37°44' W 025°40'0 0.0
2017-Oct-18 19:30N 37°44' W 025°40'0 0.0
2017-Oct-18 19:00N 37°44' W 025°40'0 0.0
2017-Oct-18 18:30N 37°44' W 025°40'0 0.0
2017-Oct-18 18:00N 37°44' W 025°40'0 0.0
2017-Oct-18 17:30N 37°44' W 025°40'0 0.0
2017-Oct-18 17:00N 37°44' W 025°40'0 0.0
2017-Oct-18 16:30N 37°44' W 025°40'0 0.0
2017-Oct-18 16:00N 37°44' W 025°40'0 0.0
2017-Oct-18 15:30N 37°44' W 025°40'0 0.0
2017-Oct-18 15:00N 37°44' W 025°40'0 0.0
2017-Oct-18 14:00N 37°44' W 025°40'0 0.4
2017-Oct-18 13:30N 37°44' W 025°40'3 5.0
2017-Oct-18 13:00N 37°43' W 025°37'510.7
2017-Oct-18 12:30N 37°40' W 025°31'511.0
2017-Oct-18 12:00N 37°41' W 025°24'611.0
2017-Oct-18 11:30N 37°41' W 025°17'510.7
2017-Oct-18 11:00N 37°42' W 025°10'611.2
2017-Oct-18 10:30N 37°42' W 025°03'510.9
2017-Oct-18 10:00N 37°43' W 024°57'510.2
2017-Oct-18 09:30N 37°44' W 024°50'5 9.8
2017-Oct-18 09:01N 37°44' W 024°44'5 9.8
2017-Oct-18 08:30N 37°44' W 024°38'5 9.2
2017-Oct-18 08:00N 37°44' W 024°32'4 8.0
2017-Oct-18 07:30N 37°45' W 024°27'4 7.2
2017-Oct-18 07:00N 37°45' W 024°22'3 5.3
2017-Oct-18 06:30N 37°45' W 024°19'612.1
2017-Oct-18 06:00N 37°46' W 024°11'611.8
2017-Oct-18 05:30N 37°46' W 024°04'611.8
2017-Oct-18 05:00N 37°46' W 023°56'611.9
2017-Oct-18 04:30N 37°47' W 023°49'611.6
2017-Oct-18 04:00N 37°47' W 023°42'  
2017-Oct-15 19:30N 40°24' W 010°09'612.2
2017-Oct-15 18:59N 40°27' W 010°02'612.8
2017-Oct-15 18:30N 40°31' W 009°55'6213.7
2017-Oct-15 14:00N 41°07' W 008°49'612.6
2017-Oct-15 13:31N 41°10' W 008°42'1 2.2
2017-Oct-15 13:00N 41°11' W 008°42'0 0.0
2017-Oct-15 12:30N 41°11' W 008°42'0 0.0
2017-Oct-15 12:00N 41°11' W 008°42'0 0.0
2017-Oct-15 11:30N 41°11' W 008°42'0 0.0
2017-Oct-15 11:00N 41°11' W 008°42'0 0.0
2017-Oct-15 10:30N 41°11' W 008°42'0 0.0
2017-Oct-15 09:57N 41°11' W 008°42'0 0.0
2017-Oct-15 09:30N 41°11' W 008°42'0 0.0
2017-Oct-15 09:00N 41°11' W 008°42'0 0.0
2017-Oct-15 08:30N 41°11' W 008°42'0 0.0
2017-Oct-15 07:27N 41°11' W 008°42'0 0.0
2017-Oct-15 06:45N 41°11' W 008°42'0 0.0
2017-Oct-15 06:30N 41°11' W 008°42'0 0.0
2017-Oct-15 06:00N 41°11' W 008°42'0 0.0
2017-Oct-15 05:30N 41°11' W 008°42'0 0.0
2017-Oct-15 04:57N 41°11' W 008°42'0 0.0
2017-Oct-15 04:24N 41°11' W 008°42'0 0.0
2017-Oct-15 03:57N 41°11' W 008°42'0 0.0
2017-Oct-15 03:30N 41°11' W 008°42'0 0.0
2017-Oct-15 03:00N 41°11' W 008°42'0 0.0
2017-Oct-15 02:30N 41°11' W 008°42'0 0.0
2017-Oct-15 02:00N 41°11' W 008°42'0 0.0
2017-Oct-15 01:27N 41°11' W 008°42'0 0.0
2017-Oct-15 01:00N 41°11' W 008°42'0 0.0
2017-Oct-15 00:27N 41°11' W 008°42'0 0.0
2017-Oct-15 00:00N 41°11' W 008°42'0 0.0
2017-Oct-14 23:30N 41°11' W 008°42'0 0.0
2017-Oct-14 23:00N 41°11' W 008°42'0 0.0
2017-Oct-14 22:30N 41°11' W 008°42'0 0.0
2017-Oct-14 22:00N 41°11' W 008°42'0 0.0
2017-Oct-14 21:27N 41°11' W 008°42'0 0.0
2017-Oct-14 20:57N 41°11' W 008°42'0 0.0
2017-Oct-14 20:30N 41°11' W 008°42'0 0.0
2017-Oct-14 20:00N 41°11' W 008°42'0 0.0
2017-Oct-14 19:27N 41°11' W 008°42'0 0.0
2017-Oct-14 18:59N 41°11' W 008°42'0 0.0
2017-Oct-14 18:20N 41°11' W 008°42'0 0.0
2017-Oct-14 17:50N 41°11' W 008°42'0 0.0
2017-Oct-14 17:26N 41°11' W 008°42'0 0.0
2017-Oct-14 16:59N 41°11' W 008°42'0 0.0
2017-Oct-14 16:29N 41°11' W 008°42'0 0.0
2017-Oct-14 15:59N 41°11' W 008°42'0 0.0
2017-Oct-14 15:26N 41°11' W 008°42'0 0.0
2017-Oct-14 14:44N 41°11' W 008°42'0 0.0
2017-Oct-14 14:23N 41°11' W 008°42'0 0.0
2017-Oct-14 13:59N 41°11' W 008°42'0 0.0
2017-Oct-14 13:26N 41°11' W 008°42'0 0.0
2017-Oct-14 12:47N 41°11' W 008°42'0 0.0
2017-Oct-14 12:29N 41°11' W 008°42'0 0.0
2017-Oct-14 11:53N 41°11' W 008°42'0 0.0
2017-Oct-14 11:29N 41°11' W 008°42'0 0.0
2017-Oct-14 10:59N 41°11' W 008°42'0 0.0
2017-Oct-14 10:29N 41°11' W 008°42'0 0.0
2017-Oct-14 09:59N 41°11' W 008°42'0 0.6
2017-Oct-14 09:30N 41°11' W 008°42'0 0.1
2017-Oct-14 09:00N 41°11' W 008°42'0 0.0
2017-Oct-14 08:29N 41°11' W 008°42'0 0.0
2017-Oct-14 07:56N 41°11' W 008°42'0 0.0
2017-Oct-14 07:26N 41°11' W 008°42'0 0.0
2017-Oct-14 06:56N 41°11' W 008°42'0 0.0
2017-Oct-14 06:26N 41°11' W 008°42'0 0.0
2017-Oct-14 05:59N 41°11' W 008°42'0 0.0
2017-Oct-14 05:29N 41°11' W 008°42'0 0.0
2017-Oct-14 04:59N 41°11' W 008°42'0 0.0
2017-Oct-14 04:26N 41°11' W 008°42'0 0.0
2017-Oct-14 03:59N 41°11' W 008°42'0 0.0
2017-Oct-14 03:29N 41°11' W 008°42'0 0.0
2017-Oct-14 02:59N 41°11' W 008°42'0 0.0
2017-Oct-14 02:29N 41°11' W 008°42'0 0.0
2017-Oct-14 01:56N 41°11' W 008°42'0 0.0
2017-Oct-14 01:29N 41°11' W 008°42'0 0.0
2017-Oct-14 00:59N 41°11' W 008°42'0 0.0
2017-Oct-14 00:29N 41°11' W 008°42'0 0.0
2017-Oct-13 23:59N 41°11' W 008°42'0 0.0
2017-Oct-13 23:29N 41°11' W 008°42'0 0.0
2017-Oct-13 22:59N 41°11' W 008°42'0 0.0
2017-Oct-13 22:29N 41°11' W 008°42'0 0.0
2017-Oct-13 21:59N 41°11' W 008°42'0 0.0
2017-Oct-13 21:26N 41°11' W 008°42'0 0.0
2017-Oct-13 20:59N 41°11' W 008°42'0 0.0
2017-Oct-13 20:29N 41°11' W 008°42'0 0.0
2017-Oct-13 19:59N 41°11' W 008°42'0 0.0
2017-Oct-13 19:29N 41°11' W 008°42'0 0.0
2017-Oct-13 18:59N 41°11' W 008°42'0 0.0
2017-Oct-13 18:29N 41°11' W 008°42'0 0.0
2017-Oct-13 17:59N 41°11' W 008°42'0 0.0
2017-Oct-13 17:29N 41°11' W 008°42'0 0.0
2017-Oct-13 16:59N 41°11' W 008°42'0 0.0
2017-Oct-13 16:29N 41°11' W 008°42'0 0.0
2017-Oct-13 15:59N 41°11' W 008°42'0 0.0
2017-Oct-13 15:29N 41°11' W 008°42'0 0.0
2017-Oct-13 14:58N 41°11' W 008°42'0 0.0
2017-Oct-13 14:28N 41°11' W 008°42'0 0.0
2017-Oct-13 13:58N 41°11' W 008°42'0 0.0
2017-Oct-13 13:28N 41°11' W 008°42'0 0.0
2017-Oct-13 12:58N 41°11' W 008°42'0 0.0
2017-Oct-13 12:28N 41°11' W 008°42'0 0.0
2017-Oct-13 11:58N 41°11' W 008°42'0 0.0
2017-Oct-13 11:28N 41°11' W 008°42'0 0.0
2017-Oct-13 10:58N 41°11' W 008°42'0 0.0
2017-Oct-13 10:28N 41°11' W 008°42'0 0.0
2017-Oct-13 09:58N 41°11' W 008°42'0 0.0
2017-Oct-13 09:28N 41°11' W 008°42'0 0.0
2017-Oct-13 08:58N 41°11' W 008°42'0 0.0
2017-Oct-13 08:28N 41°11' W 008°42'0 0.0
2017-Oct-13 07:58N 41°11' W 008°42'0 0.0
2017-Oct-13 07:28N 41°11' W 008°42'0 0.0
2017-Oct-13 06:55N 41°11' W 008°42'0 0.0
2017-Oct-13 06:25N 41°11' W 008°42'0 0.0
2017-Oct-13 05:58N 41°11' W 008°42'0 0.0
2017-Oct-13 05:25N 41°11' W 008°42'0 0.0
2017-Oct-13 04:55N 41°11' W 008°42'0 0.0
2017-Oct-13 04:28N 41°11' W 008°42'0 0.0
2017-Oct-13 03:58N 41°11' W 008°42'0 0.0
2017-Oct-13 03:28N 41°11' W 008°42'0 0.0
2017-Oct-13 02:58N 41°11' W 008°42'0 0.0
2017-Oct-13 02:28N 41°11' W 008°42'0 0.0
2017-Oct-13 01:58N 41°11' W 008°42'0 0.0
2017-Oct-13 01:28N 41°11' W 008°42'0 0.0
2017-Oct-13 00:52N 41°11' W 008°42'0 0.0
2017-Oct-13 00:28N 41°11' W 008°42'0 0.0
2017-Oct-12 23:58N 41°11' W 008°42'0 0.0
2017-Oct-12 23:22N 41°11' W 008°42'0 0.0
2017-Oct-12 22:58N 41°11' W 008°42'0 0.0
2017-Oct-12 22:28N 41°11' W 008°42'0 0.0
2017-Oct-12 21:58N 41°11' W 008°42'0 0.0
2017-Oct-12 21:28N 41°11' W 008°42'0 0.0
2017-Oct-12 20:58N 41°11' W 008°42'0 0.0
2017-Oct-12 20:28N 41°11' W 008°42'0 0.0
2017-Oct-12 19:58N 41°11' W 008°42'0 0.0
2017-Oct-12 19:28N 41°11' W 008°42'0 0.0
2017-Oct-12 18:58N 41°11' W 008°42'0 0.0
2017-Oct-12 18:28N 41°11' W 008°42'0 0.0
2017-Oct-12 17:58N 41°11' W 008°42'0 0.0
2017-Oct-12 17:28N 41°11' W 008°42'0 0.0
2017-Oct-12 16:58N 41°11' W 008°42'0 0.0
2017-Oct-12 16:28N 41°11' W 008°42'0 0.0
2017-Oct-12 15:58N 41°11' W 008°42'0 0.0
2017-Oct-12 15:28N 41°11' W 008°42'0 0.0
2017-Oct-12 14:55N 41°11' W 008°42'0 0.0
2017-Oct-12 14:28N 41°11' W 008°42'0 0.0
2017-Oct-12 13:58N 41°11' W 008°42'0 0.0
2017-Oct-12 13:28N 41°11' W 008°42'0 0.0
2017-Oct-12 12:58N 41°11' W 008°42'0 0.0
2017-Oct-12 12:28N 41°11' W 008°42'  

Dump ship's entire track history